Tropical Cyclones
[Index]
Main Index Home Page Stock Weather Photos Extreme Storms Discussion Storm News and Storm Chasing Reports Tropical Cyclones / Hurricanes / Typhoons Weather Data and Links Wild Fires / Bushfires Weather Observation Techniques Weather Picture Catalogue Tornado Pictures and Reports Stock Video Footage and DVDs for sale
Season 2010-2011 Tropical Cyclone ANGGREK Track Map
Season 2010-2011 Summaries (Operational Data): [AU] [SIO] [SPAC] [SH]
<<- Previous TC | 2010-2011 Season | Next TC ->>

click for intensity scale information  Lat/long Grid: Show Hide

 Date Labels: Show Hide

Operational Tropical Cyclone Data : JTWC Advisories | BoM Warnings

Name: ANGGREK
Number: 1102

30 Oct 2010 00:00 UTC to 04 Nov 2010 06:00 UTC

    date/time    lat    long     hPa   cat  kts
2010-10-30 00    7.5    96.0    1002         30          
2010-10-30 06    7.7    96.0    1002         30          
2010-10-30 12    7.8    95.6    1002         30          
2010-10-30 18    8.0    95.7    1000         30          
2010-10-31 00    8.1    96.1     998    1    35          
2010-10-31 06    8.6    96.3     998    1    35          
2010-10-31 12    9.3    96.7     996    1    40          
2010-10-31 18    9.6    97.0     994    1    45          
2010-11-01 00    9.9    97.4     989    2    50          
2010-11-01 06   10.6    97.5     989    2    50          
2010-11-01 12   10.9    98.0     987    2    50          
2010-11-01 18   11.2    98.2     986    2    50          
2010-11-02 00   12.1    98.3     990    2    50          
2010-11-02 06   12.5    98.1     992    1    45          
2010-11-02 12   12.9    97.9     990    1    45          
2010-11-02 18   13.2    97.7     990    1    45          
2010-11-03 00   13.9    97.4     996    1    40          
2010-11-03 06   14.2    97.0     995    1    40          
2010-11-03 12   14.7    96.7     998    1    40          
2010-11-03 18   15.1    96.2     998    1    40          
2010-11-04 00   15.3    95.5    1003         30          
2010-11-04 06   15.1    94.8    1001         30          
Winds are 10-min average.

Tropical cyclone tracks developed by Michael Bath using operational warnings and advisories and Google Maps.


[Australian Severe Weather index] [Copyright Notice] [Email Contacts] [Search This Site] [Privacy Policy]
Document: tropical_cyclone_anggrek.htm Updated: 2 May 2017